MAS1433 WMKL-WMKK
Flight info
| Callsign | MAS1433 |
|---|---|
| Flight time | 1h 0m |
| Altitude | 25000 |
| Route | ISTEL DCT RINBA Y507 KAKAK KAKAK1H |
| Aircraft | B738/M-SDE2E3FGHIRWXY/LB1 |
Departure
| Time | 2026-05-04 03:07 |
|---|---|
| Airport | Langkawi International Airport (WMKL) |
Arrival
| Time | 2026-05-04 04:07 |
|---|---|
| Airport | Kuala Lumpur International Airport (WMKK) |
| Time | Latitude | Longitude | Altitude | Speed | Heading |
|---|---|---|---|---|---|
| 2026-05-04 02:38 | 6.34073 | 99.73248 | 35 ft | 0 kts | 304° |
| 2026-05-04 02:59 | 6.34071 | 99.73250 | 35 ft | 3 kts | 304° |
| 2026-05-04 03:00 | 6.34057 | 99.73272 | 31 ft | 3 kts | 303° |
| 2026-05-04 03:00 | 6.34042 | 99.73289 | 35 ft | 4 kts | 340° |
| 2026-05-04 03:00 | 6.34020 | 99.73287 | 33 ft | 4 kts | 32° |
| 2026-05-04 03:00 | 6.34009 | 99.73279 | 33 ft | 1 kts | 34° |
| 2026-05-04 03:01 | 6.34008 | 99.73279 | 33 ft | 0 kts | 34° |
| 2026-05-04 03:03 | 6.34024 | 99.73289 | 34 ft | 5 kts | 34° |
| 2026-05-04 03:04 | 6.34062 | 99.73315 | 35 ft | 4 kts | 34° |
| 2026-05-04 03:04 | 6.34088 | 99.73333 | 35 ft | 5 kts | 34° |
| 2026-05-04 03:04 | 6.34105 | 99.73359 | 35 ft | 5 kts | 74° |
| 2026-05-04 03:04 | 6.34094 | 99.73390 | 34 ft | 5 kts | 121° |
| 2026-05-04 03:05 | 6.34076 | 99.73418 | 34 ft | 5 kts | 123° |
| 2026-05-04 03:05 | 6.34051 | 99.73455 | 35 ft | 7 kts | 124° |
| 2026-05-04 03:05 | 6.34024 | 99.73495 | 36 ft | 7 kts | 124° |
| 2026-05-04 03:05 | 6.33993 | 99.73533 | 37 ft | 7 kts | 148° |
| 2026-05-04 03:06 | 6.33948 | 99.73529 | 36 ft | 7 kts | 208° |
| 2026-05-04 03:06 | 6.33920 | 99.73511 | 36 ft | 14 kts | 212° |
| 2026-05-04 03:06 | 6.33665 | 99.73337 | 34 ft | 81 kts | 214° |
| 2026-05-04 03:06 | 6.33016 | 99.72892 | 34 ft | 145 kts | 214° |
| 2026-05-04 03:07 | 6.32043 | 99.72228 | 239 ft | 180 kts | 214° |
| 2026-05-04 03:07 | 6.31034 | 99.71535 | 1062 ft | 174 kts | 214° |
| 2026-05-04 03:07 | 6.29937 | 99.71100 | 1906 ft | 171 kts | 178° |
| 2026-05-04 03:07 | 6.28732 | 99.71315 | 2379 ft | 194 kts | 160° |
| 2026-05-04 03:08 | 6.27530 | 99.72108 | 2629 ft | 223 kts | 130° |
| 2026-05-04 03:08 | 6.26791 | 99.73579 | 2869 ft | 253 kts | 104° |
| 2026-05-04 03:08 | 6.26383 | 99.75345 | 3529 ft | 263 kts | 102° |
| 2026-05-04 03:08 | 6.25983 | 99.77152 | 4366 ft | 267 kts | 102° |
| 2026-05-04 03:09 | 6.25580 | 99.78978 | 5247 ft | 269 kts | 102° |
| 2026-05-04 03:09 | 6.25172 | 99.80826 | 6078 ft | 273 kts | 102° |
| 2026-05-04 03:09 | 6.24716 | 99.82689 | 6853 ft | 277 kts | 111° |
| 2026-05-04 03:09 | 6.23556 | 99.84223 | 7612 ft | 282 kts | 144° |
| 2026-05-04 03:10 | 6.21882 | 99.85257 | 8421 ft | 284 kts | 149° |
| 2026-05-04 03:10 | 6.20151 | 99.86264 | 9170 ft | 289 kts | 149° |
| 2026-05-04 03:10 | 6.18399 | 99.87278 | 9953 ft | 293 kts | 149° |
| 2026-05-04 03:10 | 6.16611 | 99.88316 | 10460 ft | 306 kts | 149° |
| 2026-05-04 03:11 | 6.14704 | 99.89431 | 10759 ft | 324 kts | 149° |
| 2026-05-04 03:11 | 6.12736 | 99.90587 | 11390 ft | 330 kts | 148° |
| 2026-05-04 03:11 | 6.10751 | 99.91756 | 12159 ft | 331 kts | 148° |
| 2026-05-04 03:11 | 6.08754 | 99.92936 | 12925 ft | 334 kts | 148° |
| 2026-05-04 03:12 | 6.06744 | 99.94126 | 13684 ft | 337 kts | 147° |
| 2026-05-04 03:12 | 6.04715 | 99.95330 | 14349 ft | 341 kts | 147° |
| 2026-05-04 03:12 | 6.02663 | 99.96547 | 15044 ft | 344 kts | 147° |
| 2026-05-04 03:12 | 6.00597 | 99.97774 | 15726 ft | 347 kts | 148° |
| 2026-05-04 03:13 | 5.98509 | 99.99013 | 16407 ft | 350 kts | 148° |
| 2026-05-04 03:13 | 5.96400 | 100.00266 | 17074 ft | 354 kts | 148° |
| 2026-05-04 03:13 | 5.94270 | 100.01531 | 17738 ft | 357 kts | 148° |
| 2026-05-04 03:13 | 5.92116 | 100.02810 | 18354 ft | 361 kts | 148° |
| 2026-05-04 03:14 | 5.89942 | 100.04101 | 18898 ft | 365 kts | 148° |
| 2026-05-04 03:14 | 5.87748 | 100.05404 | 19436 ft | 369 kts | 148° |
| 2026-05-04 03:14 | 5.85530 | 100.06721 | 19979 ft | 372 kts | 148° |
| 2026-05-04 03:14 | 5.83291 | 100.08050 | 20513 ft | 375 kts | 148° |
| 2026-05-04 03:15 | 5.81034 | 100.09389 | 21055 ft | 379 kts | 148° |
| 2026-05-04 03:15 | 5.78759 | 100.10740 | 21640 ft | 380 kts | 148° |
| 2026-05-04 03:15 | 5.76484 | 100.12090 | 22325 ft | 379 kts | 148° |
| 2026-05-04 03:15 | 5.74223 | 100.13430 | 23039 ft | 377 kts | 148° |
| 2026-05-04 03:16 | 5.71996 | 100.14752 | 23665 ft | 377 kts | 148° |
| 2026-05-04 03:16 | 5.69739 | 100.16091 | 24207 ft | 376 kts | 148° |
| 2026-05-04 03:16 | 5.67487 | 100.17427 | 24742 ft | 377 kts | 148° |
| 2026-05-04 03:16 | 5.65227 | 100.18767 | 24893 ft | 376 kts | 148° |
| 2026-05-04 03:17 | 5.62980 | 100.20100 | 24924 ft | 374 kts | 148° |
| 2026-05-04 03:17 | 5.60739 | 100.21430 | 24934 ft | 375 kts | 148° |
| 2026-05-04 03:17 | 5.58488 | 100.22764 | 24943 ft | 376 kts | 148° |
| 2026-05-04 03:17 | 5.56238 | 100.24099 | 24943 ft | 377 kts | 148° |
| 2026-05-04 03:18 | 5.53976 | 100.25441 | 24947 ft | 377 kts | 148° |
| 2026-05-04 03:18 | 5.51721 | 100.26778 | 24944 ft | 378 kts | 148° |
| 2026-05-04 03:18 | 5.49456 | 100.28120 | 24942 ft | 378 kts | 148° |
| 2026-05-04 03:18 | 5.47191 | 100.29463 | 24940 ft | 378 kts | 148° |
| 2026-05-04 03:19 | 5.44931 | 100.30803 | 24942 ft | 377 kts | 148° |
| 2026-05-04 03:19 | 5.42672 | 100.32142 | 24937 ft | 377 kts | 148° |
| 2026-05-04 03:19 | 5.40415 | 100.33479 | 24939 ft | 377 kts | 148° |
| 2026-05-04 03:19 | 5.38158 | 100.34817 | 24937 ft | 376 kts | 148° |
| 2026-05-04 03:20 | 5.35906 | 100.36151 | 24937 ft | 376 kts | 148° |
| 2026-05-04 03:20 | 5.33658 | 100.37483 | 24939 ft | 375 kts | 148° |
| 2026-05-04 03:20 | 5.31414 | 100.38812 | 24940 ft | 375 kts | 148° |
| 2026-05-04 03:20 | 5.29170 | 100.40141 | 24937 ft | 374 kts | 148° |
| 2026-05-04 03:21 | 5.26926 | 100.41471 | 24937 ft | 374 kts | 148° |
| 2026-05-04 03:21 | 5.24685 | 100.42798 | 24940 ft | 374 kts | 148° |
| 2026-05-04 03:21 | 5.22440 | 100.44128 | 24936 ft | 374 kts | 148° |
| 2026-05-04 03:21 | 5.20198 | 100.45456 | 24935 ft | 375 kts | 148° |
| 2026-05-04 03:22 | 5.17951 | 100.46786 | 24935 ft | 375 kts | 148° |
| 2026-05-04 03:22 | 5.15707 | 100.48115 | 24937 ft | 375 kts | 148° |
| 2026-05-04 03:22 | 5.13459 | 100.49446 | 24933 ft | 375 kts | 148° |
| 2026-05-04 03:22 | 5.11207 | 100.50779 | 24933 ft | 376 kts | 148° |
| 2026-05-04 03:23 | 5.08987 | 100.52093 | 24931 ft | 376 kts | 148° |
| 2026-05-04 03:23 | 5.06708 | 100.53442 | 24931 ft | 376 kts | 148° |
| 2026-05-04 03:23 | 5.04486 | 100.54757 | 24931 ft | 376 kts | 148° |
| 2026-05-04 03:23 | 5.02205 | 100.56107 | 24929 ft | 376 kts | 148° |
| 2026-05-04 03:24 | 4.99951 | 100.57441 | 24936 ft | 376 kts | 148° |
| 2026-05-04 03:24 | 4.97730 | 100.58755 | 24932 ft | 376 kts | 148° |
| 2026-05-04 03:24 | 4.95480 | 100.60087 | 24932 ft | 376 kts | 148° |
| 2026-05-04 03:24 | 4.93228 | 100.61419 | 24936 ft | 376 kts | 148° |
| 2026-05-04 03:25 | 4.90975 | 100.62752 | 24937 ft | 376 kts | 148° |
| 2026-05-04 03:25 | 4.88725 | 100.64083 | 24936 ft | 376 kts | 148° |
| 2026-05-04 03:25 | 4.86472 | 100.65416 | 24937 ft | 376 kts | 148° |
| 2026-05-04 03:25 | 4.84220 | 100.66747 | 24936 ft | 376 kts | 148° |
| 2026-05-04 03:26 | 4.81969 | 100.68079 | 24937 ft | 376 kts | 148° |
| 2026-05-04 03:26 | 4.80448 | 100.68978 | 24939 ft | 376 kts | 148° |
| 2026-05-04 03:26 | 4.77469 | 100.70740 | 24937 ft | 376 kts | 148° |
| 2026-05-04 03:26 | 4.75975 | 100.71623 | 24935 ft | 376 kts | 148° |
| 2026-05-04 03:27 | 4.73726 | 100.72953 | 24938 ft | 376 kts | 148° |
| 2026-05-04 03:27 | 4.71474 | 100.74284 | 24939 ft | 376 kts | 148° |
| 2026-05-04 03:27 | 4.69222 | 100.75616 | 24935 ft | 375 kts | 148° |
| 2026-05-04 03:27 | 4.66974 | 100.76944 | 24938 ft | 375 kts | 148° |
| 2026-05-04 03:28 | 4.63962 | 100.78725 | 24937 ft | 376 kts | 148° |
| 2026-05-04 03:28 | 4.62469 | 100.79608 | 24935 ft | 376 kts | 148° |
| 2026-05-04 03:28 | 4.60219 | 100.80937 | 24937 ft | 376 kts | 148° |
| 2026-05-04 03:28 | 4.57968 | 100.82268 | 24941 ft | 376 kts | 148° |
| 2026-05-04 03:29 | 4.55717 | 100.83599 | 24939 ft | 376 kts | 148° |
| 2026-05-04 03:29 | 4.53465 | 100.84929 | 24940 ft | 376 kts | 148° |
| 2026-05-04 03:29 | 4.51210 | 100.86262 | 24941 ft | 376 kts | 148° |
| 2026-05-04 03:29 | 4.48958 | 100.87590 | 24937 ft | 376 kts | 149° |
| 2026-05-04 03:30 | 4.46514 | 100.88519 | 24929 ft | 378 kts | 169° |
| 2026-05-04 03:30 | 4.43887 | 100.88589 | 24938 ft | 381 kts | 187° |
| 2026-05-04 03:30 | 4.41331 | 100.87891 | 24962 ft | 382 kts | 197° |
| 2026-05-04 03:30 | 4.38825 | 100.87000 | 24937 ft | 383 kts | 199° |
| 2026-05-04 03:31 | 4.36329 | 100.86065 | 24942 ft | 383 kts | 199° |
| 2026-05-04 03:31 | 4.33833 | 100.85125 | 24936 ft | 384 kts | 199° |
| 2026-05-04 03:31 | 4.31350 | 100.84196 | 24842 ft | 377 kts | 199° |
| 2026-05-04 03:31 | 4.28897 | 100.83289 | 24514 ft | 375 kts | 199° |
| 2026-05-04 03:32 | 4.26445 | 100.82392 | 24110 ft | 375 kts | 198° |
| 2026-05-04 03:32 | 4.24019 | 100.81510 | 23893 ft | 370 kts | 198° |
| 2026-05-04 03:32 | 4.21575 | 100.80670 | 23305 ft | 373 kts | 193° |
| 2026-05-04 03:32 | 4.19004 | 100.80233 | 22591 ft | 378 kts | 185° |
| 2026-05-04 03:33 | 4.16402 | 100.79967 | 22407 ft | 370 kts | 184° |
| 2026-05-04 03:33 | 4.13878 | 100.79737 | 22404 ft | 363 kts | 183° |
| 2026-05-04 03:33 | 4.11339 | 100.79508 | 22303 ft | 366 kts | 184° |
| 2026-05-04 03:33 | 4.08809 | 100.79272 | 21851 ft | 367 kts | 184° |
| 2026-05-04 03:34 | 4.06256 | 100.79027 | 21240 ft | 371 kts | 184° |
| 2026-05-04 03:34 | 4.03666 | 100.78771 | 20566 ft | 377 kts | 184° |
| 2026-05-04 03:34 | 4.01064 | 100.78509 | 20303 ft | 372 kts | 184° |
| 2026-05-04 03:34 | 3.98481 | 100.78245 | 20197 ft | 378 kts | 184° |
| 2026-05-04 03:35 | 3.95836 | 100.77975 | 20089 ft | 385 kts | 184° |
| 2026-05-04 03:35 | 3.93162 | 100.77701 | 19986 ft | 387 kts | 184° |
| 2026-05-04 03:35 | 3.90483 | 100.77426 | 19943 ft | 386 kts | 184° |
| 2026-05-04 03:35 | 3.87815 | 100.77150 | 19934 ft | 385 kts | 184° |
| 2026-05-04 03:36 | 3.85145 | 100.76876 | 19933 ft | 386 kts | 184° |
| 2026-05-04 03:36 | 3.82476 | 100.76601 | 19932 ft | 386 kts | 184° |
| 2026-05-04 03:36 | 3.79804 | 100.76326 | 19937 ft | 386 kts | 184° |
| 2026-05-04 03:36 | 3.77131 | 100.76051 | 19938 ft | 386 kts | 184° |
| 2026-05-04 03:37 | 3.74461 | 100.75777 | 19939 ft | 386 kts | 184° |
| 2026-05-04 03:37 | 3.71791 | 100.75502 | 19943 ft | 386 kts | 184° |
| 2026-05-04 03:37 | 3.69124 | 100.75228 | 19941 ft | 386 kts | 184° |
| 2026-05-04 03:37 | 3.66457 | 100.74954 | 19942 ft | 386 kts | 184° |
| 2026-05-04 03:38 | 3.63784 | 100.74679 | 19942 ft | 386 kts | 184° |
| 2026-05-04 03:38 | 3.61114 | 100.74405 | 19943 ft | 386 kts | 184° |
| 2026-05-04 03:38 | 3.58479 | 100.74134 | 19942 ft | 386 kts | 184° |
| 2026-05-04 03:38 | 3.55776 | 100.74061 | 19930 ft | 384 kts | 171° |
| 2026-05-04 03:39 | 3.53236 | 100.74742 | 19758 ft | 374 kts | 154° |
| 2026-05-04 03:39 | 3.51042 | 100.76058 | 19537 ft | 363 kts | 142° |
| 2026-05-04 03:39 | 3.49058 | 100.77516 | 19312 ft | 354 kts | 142° |
| 2026-05-04 03:39 | 3.47090 | 100.78958 | 19078 ft | 347 kts | 142° |
| 2026-05-04 03:40 | 3.45133 | 100.80384 | 18848 ft | 340 kts | 142° |
| 2026-05-04 03:40 | 3.43263 | 100.81739 | 18627 ft | 333 kts | 143° |
| 2026-05-04 03:40 | 3.41399 | 100.83086 | 18407 ft | 329 kts | 143° |
| 2026-05-04 03:40 | 3.39546 | 100.84422 | 18177 ft | 327 kts | 143° |
| 2026-05-04 03:41 | 3.37702 | 100.85749 | 17923 ft | 325 kts | 143° |
| 2026-05-04 03:41 | 3.35867 | 100.87068 | 17670 ft | 324 kts | 143° |
| 2026-05-04 03:41 | 3.34043 | 100.88378 | 17420 ft | 322 kts | 143° |
| 2026-05-04 03:41 | 3.32225 | 100.89684 | 17170 ft | 321 kts | 143° |
| 2026-05-04 03:42 | 3.30416 | 100.90983 | 16924 ft | 320 kts | 143° |
| 2026-05-04 03:42 | 3.28610 | 100.92279 | 16679 ft | 319 kts | 143° |
| 2026-05-04 03:42 | 3.26811 | 100.93570 | 16443 ft | 318 kts | 143° |
| 2026-05-04 03:42 | 3.25013 | 100.94860 | 16205 ft | 318 kts | 143° |
| 2026-05-04 03:43 | 3.23216 | 100.96150 | 15964 ft | 318 kts | 143° |
| 2026-05-04 03:43 | 3.21421 | 100.97438 | 15719 ft | 317 kts | 143° |
| 2026-05-04 03:43 | 3.19631 | 100.98723 | 15483 ft | 316 kts | 143° |
| 2026-05-04 03:43 | 3.17844 | 101.00004 | 15241 ft | 316 kts | 143° |
| 2026-05-04 03:44 | 3.16063 | 101.01282 | 15018 ft | 315 kts | 143° |
| 2026-05-04 03:44 | 3.14284 | 101.02558 | 14785 ft | 314 kts | 143° |
| 2026-05-04 03:44 | 3.12512 | 101.03830 | 14559 ft | 313 kts | 143° |
| 2026-05-04 03:44 | 3.10744 | 101.05098 | 14330 ft | 313 kts | 143° |
| 2026-05-04 03:45 | 3.08975 | 101.06366 | 14103 ft | 312 kts | 143° |
| 2026-05-04 03:45 | 3.07217 | 101.07627 | 13883 ft | 311 kts | 143° |
| 2026-05-04 03:45 | 3.05458 | 101.08889 | 13644 ft | 310 kts | 143° |
| 2026-05-04 03:45 | 3.03706 | 101.10146 | 13388 ft | 310 kts | 143° |
| 2026-05-04 03:46 | 3.01958 | 101.11400 | 13141 ft | 309 kts | 143° |
| 2026-05-04 03:46 | 3.00220 | 101.12646 | 12989 ft | 306 kts | 143° |
| 2026-05-04 03:46 | 2.98476 | 101.13898 | 12956 ft | 309 kts | 143° |
| 2026-05-04 03:46 | 2.96733 | 101.15147 | 12935 ft | 306 kts | 143° |
| 2026-05-04 03:47 | 2.95008 | 101.16384 | 12928 ft | 305 kts | 143° |
| 2026-05-04 03:47 | 2.93283 | 101.17622 | 12934 ft | 306 kts | 143° |
| 2026-05-04 03:47 | 2.91551 | 101.18863 | 12947 ft | 307 kts | 143° |
| 2026-05-04 03:47 | 2.89814 | 101.20109 | 12939 ft | 308 kts | 143° |
| 2026-05-04 03:48 | 2.88073 | 101.21357 | 12942 ft | 308 kts | 143° |
| 2026-05-04 03:48 | 2.86331 | 101.22607 | 12931 ft | 308 kts | 143° |
| 2026-05-04 03:48 | 2.84587 | 101.23857 | 12939 ft | 308 kts | 143° |
| 2026-05-04 03:48 | 2.82868 | 101.25090 | 12933 ft | 308 kts | 143° |
| 2026-05-04 03:49 | 2.81127 | 101.26338 | 12941 ft | 308 kts | 143° |
| 2026-05-04 03:49 | 2.79385 | 101.27587 | 12945 ft | 308 kts | 143° |
| 2026-05-04 03:49 | 2.77648 | 101.28832 | 12931 ft | 307 kts | 143° |
| 2026-05-04 03:49 | 2.75921 | 101.30070 | 12934 ft | 301 kts | 143° |
| 2026-05-04 03:50 | 2.74241 | 101.31274 | 12928 ft | 292 kts | 142° |
| 2026-05-04 03:50 | 2.72866 | 101.32688 | 12925 ft | 279 kts | 121° |
| 2026-05-04 03:50 | 2.71971 | 101.34372 | 12915 ft | 269 kts | 115° |
| 2026-05-04 03:50 | 2.71156 | 101.36057 | 12527 ft | 273 kts | 115° |
| 2026-05-04 03:51 | 2.70330 | 101.37784 | 12096 ft | 278 kts | 115° |
| 2026-05-04 03:51 | 2.69493 | 101.39525 | 11784 ft | 277 kts | 115° |
| 2026-05-04 03:51 | 2.68654 | 101.41257 | 11514 ft | 276 kts | 115° |
| 2026-05-04 03:51 | 2.67817 | 101.42977 | 11225 ft | 275 kts | 115° |
| 2026-05-04 03:52 | 2.66979 | 101.44693 | 10959 ft | 274 kts | 116° |
| 2026-05-04 03:52 | 2.66143 | 101.46401 | 10687 ft | 273 kts | 116° |
| 2026-05-04 03:52 | 2.65307 | 101.48107 | 10411 ft | 272 kts | 116° |
| 2026-05-04 03:52 | 2.64474 | 101.49805 | 10134 ft | 272 kts | 116° |
| 2026-05-04 03:53 | 2.63643 | 101.51500 | 9865 ft | 271 kts | 116° |
| 2026-05-04 03:53 | 2.62969 | 101.53251 | 9532 ft | 271 kts | 97° |
| 2026-05-04 03:53 | 2.62947 | 101.55130 | 9256 ft | 269 kts | 88° |
| 2026-05-04 03:53 | 2.63016 | 101.56999 | 8957 ft | 269 kts | 88° |
| 2026-05-04 03:54 | 2.63077 | 101.58868 | 8665 ft | 269 kts | 88° |
| 2026-05-04 03:54 | 2.63132 | 101.60731 | 8391 ft | 268 kts | 88° |
| 2026-05-04 03:54 | 2.63185 | 101.62592 | 8113 ft | 267 kts | 89° |
| 2026-05-04 03:54 | 2.62878 | 101.64405 | 7804 ft | 267 kts | 115° |
| 2026-05-04 03:55 | 2.61760 | 101.65866 | 7534 ft | 265 kts | 140° |
| 2026-05-04 03:55 | 2.60272 | 101.66941 | 7279 ft | 264 kts | 147° |
| 2026-05-04 03:55 | 2.58725 | 101.67928 | 7010 ft | 263 kts | 148° |
| 2026-05-04 03:55 | 2.57190 | 101.68914 | 6786 ft | 261 kts | 148° |
| 2026-05-04 03:56 | 2.55706 | 101.69884 | 6672 ft | 254 kts | 147° |
| 2026-05-04 03:56 | 2.54255 | 101.70840 | 6592 ft | 246 kts | 147° |
| 2026-05-04 03:56 | 2.52843 | 101.71778 | 6432 ft | 242 kts | 147° |
| 2026-05-04 03:56 | 2.51454 | 101.72708 | 6235 ft | 239 kts | 147° |
| 2026-05-04 03:57 | 2.50076 | 101.73631 | 6019 ft | 238 kts | 147° |
| 2026-05-04 03:57 | 2.48713 | 101.74546 | 5691 ft | 236 kts | 147° |
| 2026-05-04 03:57 | 2.47347 | 101.75461 | 5324 ft | 236 kts | 147° |
| 2026-05-04 03:57 | 2.45986 | 101.76374 | 5005 ft | 234 kts | 147° |
| 2026-05-04 03:58 | 2.43303 | 101.78190 | 4332 ft | 232 kts | 141° |
| 2026-05-04 03:58 | 2.42386 | 101.79493 | 3950 ft | 232 kts | 106° |
| 2026-05-04 03:58 | 2.42351 | 101.81073 | 3615 ft | 229 kts | 72° |
| 2026-05-04 03:59 | 2.43046 | 101.82510 | 3596 ft | 232 kts | 56° |
| 2026-05-04 03:59 | 2.43952 | 101.83844 | 3543 ft | 230 kts | 54° |
| 2026-05-04 03:59 | 2.44846 | 101.85126 | 3508 ft | 219 kts | 54° |
| 2026-05-04 03:59 | 2.45712 | 101.86355 | 3502 ft | 215 kts | 48° |
| 2026-05-04 04:00 | 2.46948 | 101.87100 | 3506 ft | 210 kts | 5° |
| 2026-05-04 04:00 | 2.48366 | 101.86824 | 3545 ft | 214 kts | 333° |
| 2026-05-04 04:00 | 2.49728 | 101.86156 | 3518 ft | 219 kts | 332° |
| 2026-05-04 04:00 | 2.51057 | 101.85434 | 3518 ft | 213 kts | 328° |
| 2026-05-04 04:01 | 2.52272 | 101.84675 | 3500 ft | 198 kts | 326° |
| 2026-05-04 04:01 | 2.53366 | 101.83949 | 3494 ft | 181 kts | 325° |
| 2026-05-04 04:01 | 2.54376 | 101.83270 | 3502 ft | 172 kts | 325° |
| 2026-05-04 04:01 | 2.55372 | 101.82598 | 3494 ft | 172 kts | 325° |
| 2026-05-04 04:02 | 2.56364 | 101.81928 | 3416 ft | 176 kts | 325° |
| 2026-05-04 04:02 | 2.57388 | 101.81235 | 3192 ft | 178 kts | 325° |
| 2026-05-04 04:02 | 2.58401 | 101.80551 | 2971 ft | 173 kts | 325° |
| 2026-05-04 04:02 | 2.59376 | 101.79893 | 2749 ft | 169 kts | 325° |
| 2026-05-04 04:03 | 2.59802 | 101.79605 | 2668 ft | 168 kts | 325° |
| 2026-05-04 04:03 | 2.60772 | 101.78949 | 2450 ft | 168 kts | 325° |
| 2026-05-04 04:03 | 2.61737 | 101.78298 | 2225 ft | 168 kts | 325° |
| 2026-05-04 04:03 | 2.62692 | 101.77653 | 2005 ft | 162 kts | 325° |
| 2026-05-04 04:04 | 2.63587 | 101.77049 | 1797 ft | 151 kts | 325° |
| 2026-05-04 04:04 | 2.64426 | 101.76482 | 1626 ft | 142 kts | 325° |
| 2026-05-04 04:04 | 2.65237 | 101.75934 | 1435 ft | 142 kts | 325° |
| 2026-05-04 04:04 | 2.66055 | 101.75382 | 1250 ft | 142 kts | 325° |
| 2026-05-04 04:05 | 2.66874 | 101.74828 | 1073 ft | 142 kts | 325° |
| 2026-05-04 04:05 | 2.67686 | 101.74283 | 904 ft | 143 kts | 326° |
| 2026-05-04 04:05 | 2.68502 | 101.73720 | 778 ft | 142 kts | 324° |
| 2026-05-04 04:05 | 2.69317 | 101.73155 | 640 ft | 142 kts | 324° |
| 2026-05-04 04:06 | 2.70133 | 101.72597 | 466 ft | 142 kts | 326° |
| 2026-05-04 04:06 | 2.70961 | 101.72050 | 276 ft | 143 kts | 326° |
| 2026-05-04 04:06 | 2.71765 | 101.71515 | 62 ft | 130 kts | 326° |
| 2026-05-04 04:06 | 2.72437 | 101.71062 | 53 ft | 102 kts | 326° |
| 2026-05-04 04:07 | 2.72922 | 101.70735 | 56 ft | 66 kts | 326° |
| 2026-05-04 04:07 | 2.73269 | 101.70507 | 58 ft | 52 kts | 333° |
| 2026-05-04 04:07 | 2.73500 | 101.70462 | 56 ft | 11 kts | 356° |
| 2026-05-04 04:07 | 2.73582 | 101.70456 | 49 ft | 12 kts | 356° |
| 2026-05-04 04:08 | 2.73669 | 101.70451 | 52 ft | 12 kts | 356° |
| 2026-05-04 04:08 | 2.73743 | 101.70417 | 55 ft | 12 kts | 327° |
| 2026-05-04 04:08 | 2.73812 | 101.70371 | 54 ft | 12 kts | 326° |
| 2026-05-04 04:08 | 2.73878 | 101.70327 | 49 ft | 11 kts | 326° |
| 2026-05-04 04:09 | 2.73943 | 101.70284 | 55 ft | 11 kts | 326° |
| 2026-05-04 04:09 | 2.74013 | 101.70236 | 52 ft | 13 kts | 326° |
| 2026-05-04 04:09 | 2.74090 | 101.70185 | 57 ft | 14 kts | 326° |
| 2026-05-04 04:09 | 2.74167 | 101.70133 | 55 ft | 14 kts | 326° |
| 2026-05-04 04:10 | 2.74252 | 101.70076 | 54 ft | 16 kts | 326° |
| 2026-05-04 04:10 | 2.74355 | 101.70007 | 52 ft | 19 kts | 326° |
| 2026-05-04 04:10 | 2.74454 | 101.69954 | 52 ft | 16 kts | 360° |
| 2026-05-04 04:10 | 2.74530 | 101.70027 | 60 ft | 15 kts | 56° |
| 2026-05-04 04:11 | 2.74589 | 101.70113 | 60 ft | 15 kts | 56° |
| 2026-05-04 04:11 | 2.74662 | 101.70173 | 64 ft | 14 kts | 358° |
| 2026-05-04 04:11 | 2.74745 | 101.70127 | 66 ft | 13 kts | 326° |
| 2026-05-04 04:11 | 2.74821 | 101.70077 | 69 ft | 13 kts | 326° |
| 2026-05-04 04:12 | 2.74895 | 101.70028 | 72 ft | 13 kts | 326° |
| 2026-05-04 04:12 | 2.74967 | 101.69980 | 72 ft | 12 kts | 326° |
| 2026-05-04 04:12 | 2.75043 | 101.69969 | 65 ft | 12 kts | 35° |
| 2026-05-04 04:12 | 2.75092 | 101.70035 | 69 ft | 12 kts | 56° |
| 2026-05-04 04:13 | 2.75134 | 101.70098 | 70 ft | 10 kts | 56° |
| 2026-05-04 04:13 | 2.75145 | 101.70162 | 72 ft | 9 kts | 92° |
| 2026-05-04 04:13 | 2.75166 | 101.70213 | 67 ft | 4 kts | 57° |
| 2026-05-04 04:13 | 2.75169 | 101.70236 | 70 ft | 3 kts | 115° |
| 2026-05-04 04:14 | 2.75157 | 101.70246 | 65 ft | 1 kts | 144° |
| 2026-05-04 04:14 | 2.75154 | 101.70248 | 65 ft | 1 kts | 142° |
| 2026-05-04 04:14 | 2.75150 | 101.70251 | 67 ft | 1 kts | 147° |
| 2026-05-04 04:14 | 2.75147 | 101.70253 | 68 ft | 0 kts | 147° |